createdAt,value
2022-10-02T00:03:08.156Z,1018.66
2022-10-02T00:08:08.324Z,1018.69
2022-10-02T00:13:15.481Z,1018.85
2022-10-02T00:18:05.820Z,1018.93
2022-10-02T00:23:04.999Z,1018.92
2022-10-02T00:28:04.222Z,1018.88
2022-10-02T00:33:03.410Z,1018.90
2022-10-02T00:38:05.713Z,1019.11
2022-10-02T00:43:01.874Z,1018.86
2022-10-02T00:48:02.049Z,1018.90
2022-10-02T00:52:59.238Z,1019.06
2022-10-02T00:57:59.465Z,1019.06
2022-10-02T01:02:58.782Z,1019.30
2022-10-02T01:07:58.120Z,1019.30
2022-10-02T01:12:57.433Z,1019.36
2022-10-02T01:17:56.743Z,1019.44
2022-10-02T01:22:56.062Z,1019.42
2022-10-02T01:27:55.432Z,1019.44
2022-10-02T01:32:54.585Z,1019.38
2022-10-02T01:37:55.727Z,1019.27
2022-10-02T01:42:53.056Z,1019.20
2022-10-02T01:47:53.361Z,1019.15
2022-10-02T01:52:51.638Z,1019.35
2022-10-02T01:57:51.900Z,1019.40
2022-10-02T02:02:51.195Z,1019.26
2022-10-02T02:07:49.503Z,1019.50
2022-10-02T02:12:48.784Z,1019.32
2022-10-02T02:17:48.106Z,1019.29
2022-10-02T02:22:48.443Z,1019.33
2022-10-02T02:27:47.785Z,1019.36
2022-10-02T02:32:46.068Z,1019.32
2022-10-02T02:37:46.410Z,1019.26
2022-10-02T02:42:44.538Z,1019.08
2022-10-02T02:47:43.841Z,1019.12
2022-10-02T02:52:43.167Z,1019.17
2022-10-02T02:57:42.501Z,1019.06
2022-10-02T03:02:42.819Z,1019.09
2022-10-02T03:07:41.140Z,1019.05
2022-10-02T03:12:40.449Z,1018.92
2022-10-02T03:17:39.889Z,1018.88
2022-10-02T03:22:40.043Z,1018.84
2022-10-02T03:27:38.359Z,1018.68
2022-10-02T03:32:37.686Z,1018.65
2022-10-02T03:37:38.997Z,1018.58
2022-10-02T03:42:35.291Z,1018.65
2022-10-02T03:47:37.610Z,1018.74
2022-10-02T03:52:34.909Z,1018.68
2022-10-02T03:57:34.228Z,1018.43
2022-10-02T04:02:33.568Z,1018.24
2022-10-02T04:07:32.713Z,1018.51
2022-10-02T04:12:32.036Z,1018.38
2022-10-02T04:17:32.418Z,1018.28
2022-10-02T04:22:31.540Z,1018.38
2022-10-02T04:27:29.952Z,1018.50
2022-10-02T04:32:29.069Z,1018.51
2022-10-02T04:37:28.424Z,1018.55
2022-10-02T04:42:26.721Z,1018.42
2022-10-02T04:47:26.869Z,1018.39
2022-10-02T04:52:26.209Z,1018.34
2022-10-02T04:57:25.361Z,1018.30
2022-10-02T05:02:27.697Z,1018.17
2022-10-02T05:07:23.778Z,1018.11
2022-10-02T05:12:23.101Z,1018.01
2022-10-02T05:17:22.220Z,1018.00
2022-10-02T05:22:21.554Z,1017.94
2022-10-02T05:27:20.882Z,1017.84
2022-10-02T05:32:20.190Z,1018.03
2022-10-02T05:37:20.480Z,1018.32
2022-10-02T05:42:19.806Z,1018.28
2022-10-02T05:47:18.105Z,1018.53
2022-10-02T05:52:17.404Z,1018.52
2022-10-02T05:57:18.696Z,1018.46
2022-10-02T06:02:16.053Z,1018.57
2022-10-02T06:07:16.179Z,1018.64
2022-10-02T06:12:15.491Z,1018.46
2022-10-02T06:17:16.818Z,1018.52
2022-10-02T06:22:14.077Z,1018.43
2022-10-02T06:27:12.372Z,1018.45
2022-10-02T06:32:11.663Z,1018.57
2022-10-02T06:37:10.964Z,1018.50
2022-10-02T06:42:11.239Z,1018.39
2022-10-02T06:47:11.520Z,1018.62
2022-10-02T06:52:10.794Z,1018.47
2022-10-02T06:57:08.140Z,1018.49
2022-10-02T07:02:08.350Z,1018.46
2022-10-02T07:07:06.444Z,1018.43
2022-10-02T07:12:05.751Z,1018.45
2022-10-02T07:17:06.045Z,1018.64
2022-10-02T07:22:20.334Z,1018.40
2022-10-02T07:27:04.497Z,1018.39
2022-10-02T07:32:02.806Z,1018.29
2022-10-02T07:37:03.110Z,1018.34
2022-10-02T07:42:02.395Z,1018.23
2022-10-02T07:47:00.717Z,1018.20
2022-10-02T07:51:59.851Z,1018.23
2022-10-02T07:56:59.147Z,1018.34
2022-10-02T08:01:58.549Z,1018.32
2022-10-02T08:06:58.663Z,1018.41
2022-10-02T08:11:57.933Z,1018.45
2022-10-02T08:16:56.372Z,1018.15
2022-10-02T08:21:56.509Z,1018.40
2022-10-02T08:26:55.613Z,1018.17
2022-10-02T08:31:54.023Z,1018.29
2022-10-02T08:36:53.196Z,1018.16
2022-10-02T08:41:52.498Z,1018.13
2022-10-02T08:46:51.797Z,1018.24
2022-10-02T08:51:51.098Z,1018.26
2022-10-02T08:56:50.401Z,1018.13
2022-10-02T09:01:49.699Z,1018.02
2022-10-02T09:06:49.002Z,1018.08
2022-10-02T09:11:48.332Z,1018.02
2022-10-02T09:16:47.659Z,1017.93
2022-10-02T09:21:47.916Z,1017.99
2022-10-02T09:26:47.214Z,1017.84
2022-10-02T09:31:46.543Z,1017.87
2022-10-02T09:36:44.661Z,1017.82
2022-10-02T09:41:43.952Z,1017.79
2022-10-02T09:46:43.237Z,1017.75
2022-10-02T09:51:42.537Z,1017.77
2022-10-02T09:56:41.875Z,1017.66
2022-10-02T10:01:41.186Z,1017.69
2022-10-02T10:06:41.507Z,1017.54
2022-10-02T10:11:40.904Z,1017.50
2022-10-02T10:16:39.028Z,1017.36
2022-10-02T10:21:37.467Z,1017.36
2022-10-02T10:26:37.475Z,1017.39
2022-10-02T10:31:37.067Z,1017.40
2022-10-02T10:36:36.117Z,1017.39
2022-10-02T10:41:35.744Z,1017.31
2022-10-02T10:46:34.677Z,1017.35
2022-10-02T10:51:34.211Z,1017.27
2022-10-02T10:56:33.281Z,1017.27
2022-10-02T11:01:33.603Z,1017.30
2022-10-02T11:06:32.751Z,1017.17
2022-10-02T11:11:31.023Z,1017.25
2022-10-02T11:16:31.344Z,1017.19
2022-10-02T11:21:29.625Z,1017.19
2022-10-02T11:26:29.866Z,1017.15
2022-10-02T11:31:28.188Z,1017.00
2022-10-02T11:36:28.456Z,1017.03
2022-10-02T11:41:26.757Z,1017.19
2022-10-02T11:46:26.018Z,1017.69
2022-10-02T11:51:25.303Z,1017.72
2022-10-02T11:56:23.600Z,1017.71
2022-10-02T12:01:23.983Z,1017.47
2022-10-02T12:06:22.133Z,1017.44
2022-10-02T12:11:22.370Z,1017.32
2022-10-02T12:16:21.517Z,1017.29
2022-10-02T12:21:21.638Z,1017.16
2022-10-02T12:26:19.920Z,1017.04
2022-10-02T12:31:20.130Z,1017.08
2022-10-02T12:36:19.321Z,1017.11
2022-10-02T12:41:18.506Z,1017.14
2022-10-02T12:46:16.723Z,1017.04
2022-10-02T12:51:18.028Z,1016.89
2022-10-02T12:56:15.180Z,1016.95
2022-10-02T13:01:15.433Z,1016.76
2022-10-02T13:06:13.596Z,1016.88
2022-10-02T13:11:12.817Z,1016.95
2022-10-02T13:16:12.040Z,1016.68
2022-10-02T13:21:12.221Z,1016.77
2022-10-02T13:26:11.397Z,1016.78
2022-10-02T13:31:10.615Z,1016.68
2022-10-02T13:36:08.797Z,1016.61
2022-10-02T13:41:08.007Z,1016.59
2022-10-02T13:46:07.289Z,1016.60
2022-10-02T13:51:06.513Z,1016.51
2022-10-02T13:56:05.710Z,1016.43
2022-10-02T14:01:04.948Z,1016.30
2022-10-02T14:06:04.126Z,1016.33
2022-10-02T14:11:03.306Z,1016.29
2022-10-02T14:16:02.573Z,1016.23
2022-10-02T14:21:01.750Z,1016.11
2022-10-02T14:26:00.994Z,1016.10
2022-10-02T14:31:00.160Z,1016.01
2022-10-02T14:36:00.331Z,1015.99
2022-10-02T14:40:59.540Z,1015.99
2022-10-02T14:45:57.769Z,1015.85
2022-10-02T14:50:58.967Z,1015.96
2022-10-02T14:55:56.127Z,1015.91
2022-10-02T15:00:56.378Z,1015.92
2022-10-02T15:05:56.597Z,1015.94
2022-10-02T15:10:53.777Z,1015.95
2022-10-02T15:15:55.044Z,1015.98
2022-10-02T15:20:52.190Z,1016.01
2022-10-02T15:25:51.393Z,1016.06
2022-10-02T15:30:50.572Z,1016.13
2022-10-02T15:35:50.752Z,1016.10
2022-10-02T15:40:50.946Z,1016.22
2022-10-02T15:45:49.230Z,1016.19
2022-10-02T15:50:47.430Z,1016.30
2022-10-02T15:55:47.650Z,1016.32
2022-10-02T16:00:46.854Z,1016.37
2022-10-02T16:05:45.016Z,1016.39
2022-10-02T16:10:45.203Z,1016.51
2022-10-02T16:15:42.399Z,1016.44
2022-10-02T16:20:42.544Z,1016.50
2022-10-02T16:25:43.709Z,1016.53
2022-10-02T16:30:40.901Z,1016.61
2022-10-02T16:35:43.687Z,1016.71
2022-10-02T16:40:39.260Z,1016.66
2022-10-02T16:45:39.553Z,1016.73
2022-10-02T16:50:42.197Z,1016.84
2022-10-02T16:55:38.016Z,1016.93
2022-10-02T17:00:37.241Z,1016.98
2022-10-02T17:05:37.438Z,1017.00
2022-10-02T17:10:34.640Z,1017.15
2022-10-02T17:15:35.816Z,1017.24
2022-10-02T17:20:32.993Z,1017.27
2022-10-02T17:25:32.206Z,1017.44
2022-10-02T17:30:31.456Z,1017.47
2022-10-02T17:35:30.637Z,1017.64
2022-10-02T17:40:30.833Z,1017.74
2022-10-02T17:45:29.093Z,1017.81
2022-10-02T17:50:28.311Z,1017.82
2022-10-02T17:55:28.576Z,1017.92
2022-10-02T18:00:26.828Z,1018.09
2022-10-02T18:05:28.035Z,1018.24
2022-10-02T18:10:24.411Z,1018.29
2022-10-02T18:15:26.149Z,1018.19
2022-10-02T18:20:24.741Z,1018.15
2022-10-02T18:25:22.929Z,1018.16
2022-10-02T18:30:22.132Z,1018.27
2022-10-02T18:35:21.301Z,1018.31
2022-10-02T18:40:20.517Z,1018.26
2022-10-02T18:45:20.976Z,1018.28
2022-10-02T18:50:20.032Z,1018.28
2022-10-02T18:55:18.476Z,1018.28
2022-10-02T19:00:19.509Z,1018.28
2022-10-02T19:05:15.708Z,1018.30
2022-10-02T19:10:16.889Z,1018.17
2022-10-02T19:15:16.057Z,1018.26
2022-10-02T19:20:17.250Z,1018.11
2022-10-02T19:25:12.405Z,1018.08
2022-10-02T19:30:12.605Z,1018.21
2022-10-02T19:35:12.929Z,1018.26
2022-10-02T19:40:13.189Z,1018.38
2022-10-02T19:45:10.255Z,1018.52
2022-10-02T19:50:09.423Z,1018.52
2022-10-02T19:55:12.310Z,1018.41
2022-10-02T20:00:09.119Z,1018.54
2022-10-02T20:05:09.185Z,1018.50
2022-10-02T20:10:06.344Z,1018.46
2022-10-02T20:15:06.504Z,1018.56
2022-10-02T20:20:05.691Z,1018.54
2022-10-02T20:25:03.863Z,1018.53
2022-10-02T20:30:03.047Z,1018.53
2022-10-02T20:35:02.239Z,1018.47
2022-10-02T20:40:02.506Z,1018.75
2022-10-02T20:45:01.725Z,1018.85
2022-10-02T20:49:59.915Z,1018.93
2022-10-02T20:55:00.102Z,1018.90
2022-10-02T20:59:58.353Z,1018.95
2022-10-02T21:04:59.567Z,1019.11
2022-10-02T21:09:56.746Z,1019.13
2022-10-02T21:14:56.924Z,1019.16
2022-10-02T21:19:55.099Z,1019.16
2022-10-02T21:24:54.409Z,1019.18
2022-10-02T21:29:55.637Z,1019.25
2022-10-02T21:34:53.788Z,1019.31
2022-10-02T21:39:52.952Z,1019.32
2022-10-02T21:44:51.164Z,1019.28
2022-10-02T21:49:50.313Z,1019.18
2022-10-02T21:54:49.498Z,1019.19
2022-10-02T21:59:48.658Z,1019.13
2022-10-02T22:04:47.820Z,1019.00
2022-10-02T22:09:46.965Z,1018.99
2022-10-02T22:14:46.149Z,1019.01
2022-10-02T22:19:45.316Z,1019.06
2022-10-02T22:24:44.499Z,1018.98
2022-10-02T22:29:44.684Z,1019.46
2022-10-02T22:34:42.871Z,1019.65
2022-10-02T22:39:42.024Z,1019.72
2022-10-02T22:44:43.221Z,1019.84
2022-10-02T22:49:40.391Z,1019.80
2022-10-02T22:54:39.578Z,1019.91
2022-10-02T22:59:38.744Z,1019.97
2022-10-02T23:04:37.970Z,1020.03
2022-10-02T23:09:37.167Z,1020.19
2022-10-02T23:14:36.346Z,1020.26
2022-10-02T23:19:37.619Z,1020.41
2022-10-02T23:24:34.793Z,1020.40
2022-10-02T23:29:34.018Z,1020.41
2022-10-02T23:34:34.199Z,1020.45
2022-10-02T23:39:33.371Z,1020.42
2022-10-02T23:44:32.669Z,1020.51
2022-10-02T23:49:32.000Z,1020.54
2022-10-02T23:54:30.306Z,1020.54
2022-10-02T23:59:29.634Z,1020.59
